sensor_id;sensor_type;location;lat;lon;timestamp;P1;durP1;ratioP1;P2;durP2;ratioP2
16963;SDS011;8598;50.508;10.436;2023-02-10T00:01:19;40.80;;;16.93;;
16963;SDS011;8598;50.508;10.436;2023-02-10T00:03:47;46.13;;;18.17;;
16963;SDS011;8598;50.508;10.436;2023-02-10T00:06:14;40.17;;;19.00;;
16963;SDS011;8598;50.508;10.436;2023-02-10T00:08:45;33.53;;;18.10;;
16963;SDS011;8598;50.508;10.436;2023-02-10T00:11:13;39.90;;;17.83;;
16963;SDS011;8598;50.508;10.436;2023-02-10T00:13:41;43.13;;;16.93;;
16963;SDS011;8598;50.508;10.436;2023-02-10T00:16:09;31.23;;;17.27;;
16963;SDS011;8598;50.508;10.436;2023-02-10T00:18:37;33.00;;;16.93;;
16963;SDS011;8598;50.508;10.436;2023-02-10T00:21:05;35.57;;;15.37;;
16963;SDS011;8598;50.508;10.436;2023-02-10T00:23:32;35.50;;;17.00;;
16963;SDS011;8598;50.508;10.436;2023-02-10T00:26:01;33.07;;;16.67;;
16963;SDS011;8598;50.508;10.436;2023-02-10T00:28:29;37.47;;;17.30;;
16963;SDS011;8598;50.508;10.436;2023-02-10T00:30:57;35.00;;;16.97;;
16963;SDS011;8598;50.508;10.436;2023-02-10T00:33:24;38.10;;;17.33;;
16963;SDS011;8598;50.508;10.436;2023-02-10T00:35:50;35.20;;;16.90;;
16963;SDS011;8598;50.508;10.436;2023-02-10T00:38:17;32.40;;;16.40;;
16963;SDS011;8598;50.508;10.436;2023-02-10T00:40:43;45.63;;;16.57;;
16963;SDS011;8598;50.508;10.436;2023-02-10T00:43:10;38.10;;;16.23;;
16963;SDS011;8598;50.508;10.436;2023-02-10T00:45:38;41.30;;;17.80;;
16963;SDS011;8598;50.508;10.436;2023-02-10T00:48:04;35.97;;;15.20;;
16963;SDS011;8598;50.508;10.436;2023-02-10T00:50:31;32.03;;;16.90;;
16963;SDS011;8598;50.508;10.436;2023-02-10T00:52:58;42.10;;;17.23;;
16963;SDS011;8598;50.508;10.436;2023-02-10T00:55:24;37.27;;;16.43;;
16963;SDS011;8598;50.508;10.436;2023-02-10T00:57:51;35.43;;;16.33;;
16963;SDS011;8598;50.508;10.436;2023-02-10T01:00:17;33.07;;;15.57;;
16963;SDS011;8598;50.508;10.436;2023-02-10T01:02:45;28.83;;;15.50;;
16963;SDS011;8598;50.508;10.436;2023-02-10T01:05:12;36.63;;;15.93;;
16963;SDS011;8598;50.508;10.436;2023-02-10T01:07:39;39.67;;;15.37;;
16963;SDS011;8598;50.508;10.436;2023-02-10T01:10:05;34.30;;;17.07;;
16963;SDS011;8598;50.508;10.436;2023-02-10T01:12:32;32.90;;;15.20;;
16963;SDS011;8598;50.508;10.436;2023-02-10T01:14:59;33.73;;;15.73;;
16963;SDS011;8598;50.508;10.436;2023-02-10T01:17:25;35.07;;;16.50;;
16963;SDS011;8598;50.508;10.436;2023-02-10T01:19:53;31.37;;;16.17;;
16963;SDS011;8598;50.508;10.436;2023-02-10T01:22:20;32.83;;;16.53;;
16963;SDS011;8598;50.508;10.436;2023-02-10T01:24:47;32.93;;;15.07;;
16963;SDS011;8598;50.508;10.436;2023-02-10T01:27:14;38.27;;;16.37;;
16963;SDS011;8598;50.508;10.436;2023-02-10T01:29:41;29.83;;;15.73;;
16963;SDS011;8598;50.508;10.436;2023-02-10T01:32:07;37.27;;;15.77;;
16963;SDS011;8598;50.508;10.436;2023-02-10T01:34:35;28.20;;;14.73;;
16963;SDS011;8598;50.508;10.436;2023-02-10T01:37:03;30.23;;;14.30;;
16963;SDS011;8598;50.508;10.436;2023-02-10T01:39:30;33.43;;;14.67;;
16963;SDS011;8598;50.508;10.436;2023-02-10T01:41:56;33.57;;;16.37;;
16963;SDS011;8598;50.508;10.436;2023-02-10T01:47:41;32.17;;;13.90;;
16963;SDS011;8598;50.508;10.436;2023-02-10T01:50:09;29.93;;;15.53;;
16963;SDS011;8598;50.508;10.436;2023-02-10T01:52:38;36.57;;;16.13;;
16963;SDS011;8598;50.508;10.436;2023-02-10T01:55:06;30.67;;;15.73;;
16963;SDS011;8598;50.508;10.436;2023-02-10T01:57:34;34.07;;;15.07;;
16963;SDS011;8598;50.508;10.436;2023-02-10T02:00:05;34.67;;;15.77;;
16963;SDS011;8598;50.508;10.436;2023-02-10T02:02:33;36.43;;;16.53;;
16963;SDS011;8598;50.508;10.436;2023-02-10T02:05:00;34.73;;;15.13;;
16963;SDS011;8598;50.508;10.436;2023-02-10T02:07:29;30.20;;;14.70;;
16963;SDS011;8598;50.508;10.436;2023-02-10T02:10:00;31.27;;;15.23;;
16963;SDS011;8598;50.508;10.436;2023-02-10T02:12:30;29.87;;;14.00;;
16963;SDS011;8598;50.508;10.436;2023-02-10T02:15:06;27.20;;;13.37;;
16963;SDS011;8598;50.508;10.436;2023-02-10T02:17:39;25.80;;;14.10;;
16963;SDS011;8598;50.508;10.436;2023-02-10T02:20:33;29.67;;;14.47;;
16963;SDS011;8598;50.508;10.436;2023-02-10T02:32:20;31.93;;;14.70;;
16963;SDS011;8598;50.508;10.436;2023-02-10T02:34:48;25.80;;;14.90;;
16963;SDS011;8598;50.508;10.436;2023-02-10T02:37:19;32.50;;;15.07;;
16963;SDS011;8598;50.508;10.436;2023-02-10T02:39:49;28.80;;;15.00;;
16963;SDS011;8598;50.508;10.436;2023-02-10T02:42:18;28.50;;;14.87;;
16963;SDS011;8598;50.508;10.436;2023-02-10T02:44:47;29.97;;;15.70;;
16963;SDS011;8598;50.508;10.436;2023-02-10T02:47:37;28.20;;;14.17;;
16963;SDS011;8598;50.508;10.436;2023-02-10T02:50:17;30.70;;;13.40;;
16963;SDS011;8598;50.508;10.436;2023-02-10T02:52:52;31.30;;;13.37;;
16963;SDS011;8598;50.508;10.436;2023-02-10T02:55:31;31.87;;;15.40;;
16963;SDS011;8598;50.508;10.436;2023-02-10T02:58:08;26.20;;;14.30;;
16963;SDS011;8598;50.508;10.436;2023-02-10T03:00:42;27.40;;;14.60;;
16963;SDS011;8598;50.508;10.436;2023-02-10T03:03:12;31.13;;;14.17;;
16963;SDS011;8598;50.508;10.436;2023-02-10T03:05:39;24.37;;;12.30;;
16963;SDS011;8598;50.508;10.436;2023-02-10T03:08:06;31.77;;;13.83;;
16963;SDS011;8598;50.508;10.436;2023-02-10T03:10:33;30.87;;;13.73;;
16963;SDS011;8598;50.508;10.436;2023-02-10T03:13:00;29.67;;;15.23;;
16963;SDS011;8598;50.508;10.436;2023-02-10T03:15:26;32.97;;;13.93;;
16963;SDS011;8598;50.508;10.436;2023-02-10T03:17:55;30.37;;;13.87;;
16963;SDS011;8598;50.508;10.436;2023-02-10T03:20:23;30.40;;;15.27;;
16963;SDS011;8598;50.508;10.436;2023-02-10T03:22:50;26.47;;;13.50;;
16963;SDS011;8598;50.508;10.436;2023-02-10T03:25:16;28.17;;;14.87;;
16963;SDS011;8598;50.508;10.436;2023-02-10T03:27:43;24.73;;;12.47;;
16963;SDS011;8598;50.508;10.436;2023-02-10T03:30:10;24.23;;;14.07;;
16963;SDS011;8598;50.508;10.436;2023-02-10T03:32:36;27.67;;;14.23;;
16963;SDS011;8598;50.508;10.436;2023-02-10T03:35:03;26.67;;;12.80;;
16963;SDS011;8598;50.508;10.436;2023-02-10T03:37:32;30.13;;;13.53;;
16963;SDS011;8598;50.508;10.436;2023-02-10T03:39:58;26.57;;;13.60;;
16963;SDS011;8598;50.508;10.436;2023-02-10T03:42:25;30.10;;;14.90;;
16963;SDS011;8598;50.508;10.436;2023-02-10T03:44:51;28.83;;;13.80;;
16963;SDS011;8598;50.508;10.436;2023-02-10T03:47:18;26.10;;;13.47;;
16963;SDS011;8598;50.508;10.436;2023-02-10T03:49:45;29.43;;;13.67;;
16963;SDS011;8598;50.508;10.436;2023-02-10T03:52:11;27.57;;;12.97;;
16963;SDS011;8598;50.508;10.436;2023-02-10T03:54:39;29.30;;;12.80;;
16963;SDS011;8598;50.508;10.436;2023-02-10T03:57:06;29.27;;;12.97;;
16963;SDS011;8598;50.508;10.436;2023-02-10T03:59:33;27.07;;;13.33;;
16963;SDS011;8598;50.508;10.436;2023-02-10T04:01:59;30.13;;;15.50;;
16963;SDS011;8598;50.508;10.436;2023-02-10T04:04:26;24.70;;;13.03;;
16963;SDS011;8598;50.508;10.436;2023-02-10T04:10:16;24.37;;;11.80;;
16963;SDS011;8598;50.508;10.436;2023-02-10T04:12:43;27.13;;;14.37;;
16963;SDS011;8598;50.508;10.436;2023-02-10T04:15:09;24.27;;;11.90;;
16963;SDS011;8598;50.508;10.436;2023-02-10T04:17:36;23.97;;;12.07;;
16963;SDS011;8598;50.508;10.436;2023-02-10T04:20:03;27.60;;;14.13;;
16963;SDS011;8598;50.508;10.436;2023-02-10T04:22:30;24.30;;;12.87;;
16963;SDS011;8598;50.508;10.436;2023-02-10T04:24:58;28.73;;;13.00;;
16963;SDS011;8598;50.508;10.436;2023-02-10T04:27:26;22.37;;;11.97;;
16963;SDS011;8598;50.508;10.436;2023-02-10T04:29:52;29.23;;;13.07;;
16963;SDS011;8598;50.508;10.436;2023-02-10T04:32:20;24.30;;;12.13;;
16963;SDS011;8598;50.508;10.436;2023-02-10T04:34:47;27.83;;;13.07;;
16963;SDS011;8598;50.508;10.436;2023-02-10T04:37:14;33.77;;;15.00;;
16963;SDS011;8598;50.508;10.436;2023-02-10T04:39:41;27.23;;;14.20;;
16963;SDS011;8598;50.508;10.436;2023-02-10T04:42:07;28.40;;;13.60;;
16963;SDS011;8598;50.508;10.436;2023-02-10T04:44:35;26.67;;;13.53;;
16963;SDS011;8598;50.508;10.436;2023-02-10T04:47:02;25.57;;;12.67;;
16963;SDS011;8598;50.508;10.436;2023-02-10T04:49:29;28.40;;;14.53;;
16963;SDS011;8598;50.508;10.436;2023-02-10T04:51:55;32.03;;;14.47;;
16963;SDS011;8598;50.508;10.436;2023-02-10T04:54:22;28.10;;;13.17;;
16963;SDS011;8598;50.508;10.436;2023-02-10T04:56:49;29.63;;;14.30;;
16963;SDS011;8598;50.508;10.436;2023-02-10T04:59:16;28.73;;;15.03;;
16963;SDS011;8598;50.508;10.436;2023-02-10T05:01:44;31.00;;;14.20;;
16963;SDS011;8598;50.508;10.436;2023-02-10T05:04:11;27.23;;;13.40;;
16963;SDS011;8598;50.508;10.436;2023-02-10T05:06:38;26.33;;;13.37;;
16963;SDS011;8598;50.508;10.436;2023-02-10T05:09:04;29.00;;;14.03;;
16963;SDS011;8598;50.508;10.436;2023-02-10T05:11:31;28.23;;;14.87;;
16963;SDS011;8598;50.508;10.436;2023-02-10T05:13:57;23.73;;;13.00;;
16963;SDS011;8598;50.508;10.436;2023-02-10T05:16:24;28.73;;;14.30;;
16963;SDS011;8598;50.508;10.436;2023-02-10T05:18:52;25.00;;;14.77;;
16963;SDS011;8598;50.508;10.436;2023-02-10T05:21:19;32.07;;;16.43;;
16963;SDS011;8598;50.508;10.436;2023-02-10T05:23:45;30.57;;;14.77;;
16963;SDS011;8598;50.508;10.436;2023-02-10T05:26:12;29.77;;;15.57;;
16963;SDS011;8598;50.508;10.436;2023-02-10T05:28:39;27.97;;;15.50;;
16963;SDS011;8598;50.508;10.436;2023-02-10T05:31:05;29.43;;;15.13;;
16963;SDS011;8598;50.508;10.436;2023-02-10T05:33:33;30.77;;;15.03;;
16963;SDS011;8598;50.508;10.436;2023-02-10T05:36:01;30.77;;;15.00;;
16963;SDS011;8598;50.508;10.436;2023-02-10T05:38:28;26.47;;;13.93;;
16963;SDS011;8598;50.508;10.436;2023-02-10T05:40:55;36.27;;;15.70;;
16963;SDS011;8598;50.508;10.436;2023-02-10T05:43:22;34.37;;;16.07;;
16963;SDS011;8598;50.508;10.436;2023-02-10T05:45:48;39.20;;;19.87;;
16963;SDS011;8598;50.508;10.436;2023-02-10T05:48:15;37.80;;;19.77;;
16963;SDS011;8598;50.508;10.436;2023-02-10T05:50:41;28.40;;;14.67;;
16963;SDS011;8598;50.508;10.436;2023-02-10T05:53:09;28.77;;;14.73;;
16963;SDS011;8598;50.508;10.436;2023-02-10T05:55:37;28.07;;;15.57;;
16963;SDS011;8598;50.508;10.436;2023-02-10T05:58:04;28.70;;;15.30;;
16963;SDS011;8598;50.508;10.436;2023-02-10T06:00:31;34.07;;;16.70;;
16963;SDS011;8598;50.508;10.436;2023-02-10T06:02:57;31.20;;;14.67;;
16963;SDS011;8598;50.508;10.436;2023-02-10T06:05:24;28.47;;;13.97;;
16963;SDS011;8598;50.508;10.436;2023-02-10T06:07:51;29.47;;;14.33;;
16963;SDS011;8598;50.508;10.436;2023-02-10T06:10:21;30.77;;;15.13;;
16963;SDS011;8598;50.508;10.436;2023-02-10T06:12:47;32.60;;;15.73;;
16963;SDS011;8598;50.508;10.436;2023-02-10T06:15:14;35.07;;;17.83;;
16963;SDS011;8598;50.508;10.436;2023-02-10T06:17:41;29.03;;;15.67;;
16963;SDS011;8598;50.508;10.436;2023-02-10T06:20:07;40.23;;;20.97;;
16963;SDS011;8598;50.508;10.436;2023-02-10T06:22:34;47.77;;;28.30;;
16963;SDS011;8598;50.508;10.436;2023-02-10T06:25:01;37.23;;;20.60;;
16963;SDS011;8598;50.508;10.436;2023-02-10T06:27:29;42.27;;;17.13;;
16963;SDS011;8598;50.508;10.436;2023-02-10T06:29:56;34.97;;;15.47;;
16963;SDS011;8598;50.508;10.436;2023-02-10T06:32:22;36.67;;;16.73;;
16963;SDS011;8598;50.508;10.436;2023-02-10T06:34:49;30.97;;;14.90;;
16963;SDS011;8598;50.508;10.436;2023-02-10T06:37:15;36.97;;;16.63;;
16963;SDS011;8598;50.508;10.436;2023-02-10T06:39:42;28.20;;;14.87;;
16963;SDS011;8598;50.508;10.436;2023-02-10T06:42:09;32.47;;;15.40;;
16963;SDS011;8598;50.508;10.436;2023-02-10T06:44:36;29.90;;;15.53;;
16963;SDS011;8598;50.508;10.436;2023-02-10T06:47:03;32.43;;;16.53;;
16963;SDS011;8598;50.508;10.436;2023-02-10T06:49:30;34.83;;;16.27;;
16963;SDS011;8598;50.508;10.436;2023-02-10T06:51:56;30.87;;;16.63;;
16963;SDS011;8598;50.508;10.436;2023-02-10T06:54:23;33.67;;;16.80;;
16963;SDS011;8598;50.508;10.436;2023-02-10T06:56:49;37.10;;;17.07;;
16963;SDS011;8598;50.508;10.436;2023-02-10T06:59:16;29.97;;;16.97;;
16963;SDS011;8598;50.508;10.436;2023-02-10T07:01:44;34.60;;;17.93;;
16963;SDS011;8598;50.508;10.436;2023-02-10T07:04:11;37.13;;;17.20;;
16963;SDS011;8598;50.508;10.436;2023-02-10T07:06:37;40.30;;;18.60;;
16963;SDS011;8598;50.508;10.436;2023-02-10T07:09:04;39.20;;;18.77;;
16963;SDS011;8598;50.508;10.436;2023-02-10T07:11:32;34.23;;;16.90;;
16963;SDS011;8598;50.508;10.436;2023-02-10T07:13:58;35.37;;;18.63;;
16963;SDS011;8598;50.508;10.436;2023-02-10T07:16:25;47.50;;;22.97;;
16963;SDS011;8598;50.508;10.436;2023-02-10T07:18:56;65.50;;;28.17;;
16963;SDS011;8598;50.508;10.436;2023-02-10T07:21:22;39.20;;;18.93;;
16963;SDS011;8598;50.508;10.436;2023-02-10T07:23:49;47.67;;;20.73;;
16963;SDS011;8598;50.508;10.436;2023-02-10T07:26:15;63.43;;;24.00;;
16963;SDS011;8598;50.508;10.436;2023-02-10T07:28:43;39.07;;;17.83;;
16963;SDS011;8598;50.508;10.436;2023-02-10T07:31:10;35.50;;;17.43;;
16963;SDS011;8598;50.508;10.436;2023-02-10T07:33:37;37.27;;;19.90;;
16963;SDS011;8598;50.508;10.436;2023-02-10T07:36:06;35.43;;;16.63;;
16963;SDS011;8598;50.508;10.436;2023-02-10T07:38:34;36.93;;;17.90;;
16963;SDS011;8598;50.508;10.436;2023-02-10T07:41:01;38.43;;;17.60;;
16963;SDS011;8598;50.508;10.436;2023-02-10T07:43:27;35.20;;;17.87;;
16963;SDS011;8598;50.508;10.436;2023-02-10T07:45:54;41.93;;;18.63;;
16963;SDS011;8598;50.508;10.436;2023-02-10T07:48:21;31.43;;;17.83;;
16963;SDS011;8598;50.508;10.436;2023-02-10T07:50:48;36.30;;;17.33;;
16963;SDS011;8598;50.508;10.436;2023-02-10T07:53:16;37.87;;;19.73;;
16963;SDS011;8598;50.508;10.436;2023-02-10T07:55:43;48.97;;;19.73;;
16963;SDS011;8598;50.508;10.436;2023-02-10T07:58:09;42.10;;;19.77;;
16963;SDS011;8598;50.508;10.436;2023-02-10T08:00:36;42.17;;;20.30;;
16963;SDS011;8598;50.508;10.436;2023-02-10T08:03:03;51.53;;;21.50;;
16963;SDS011;8598;50.508;10.436;2023-02-10T08:05:30;45.97;;;20.00;;
16963;SDS011;8598;50.508;10.436;2023-02-10T08:07:56;40.83;;;18.83;;
16963;SDS011;8598;50.508;10.436;2023-02-10T08:10:24;38.37;;;20.57;;
16963;SDS011;8598;50.508;10.436;2023-02-10T08:12:51;40.43;;;22.47;;
16963;SDS011;8598;50.508;10.436;2023-02-10T08:15:18;43.10;;;21.13;;
16963;SDS011;8598;50.508;10.436;2023-02-10T08:17:47;41.87;;;22.70;;
16963;SDS011;8598;50.508;10.436;2023-02-10T08:20:14;37.37;;;20.67;;
16963;SDS011;8598;50.508;10.436;2023-02-10T08:22:41;39.73;;;19.43;;
16963;SDS011;8598;50.508;10.436;2023-02-10T08:25:07;34.43;;;18.07;;
16963;SDS011;8598;50.508;10.436;2023-02-10T08:27:35;35.60;;;20.37;;
16963;SDS011;8598;50.508;10.436;2023-02-10T08:30:02;36.90;;;19.03;;
16963;SDS011;8598;50.508;10.436;2023-02-10T08:32:30;38.73;;;22.13;;
16963;SDS011;8598;50.508;10.436;2023-02-10T08:34:57;43.07;;;21.90;;
16963;SDS011;8598;50.508;10.436;2023-02-10T08:37:24;43.03;;;23.90;;
16963;SDS011;8598;50.508;10.436;2023-02-10T08:39:51;43.13;;;22.40;;
16963;SDS011;8598;50.508;10.436;2023-02-10T08:42:18;49.77;;;25.27;;
16963;SDS011;8598;50.508;10.436;2023-02-10T08:44:45;41.57;;;23.83;;
16963;SDS011;8598;50.508;10.436;2023-02-10T08:47:12;45.30;;;22.67;;
16963;SDS011;8598;50.508;10.436;2023-02-10T08:49:39;40.03;;;22.37;;
16963;SDS011;8598;50.508;10.436;2023-02-10T08:52:06;40.53;;;21.40;;
16963;SDS011;8598;50.508;10.436;2023-02-10T08:54:33;42.27;;;22.83;;
16963;SDS011;8598;50.508;10.436;2023-02-10T08:57:00;41.70;;;22.27;;
16963;SDS011;8598;50.508;10.436;2023-02-10T08:59:27;42.67;;;22.60;;
16963;SDS011;8598;50.508;10.436;2023-02-10T09:01:54;47.37;;;25.37;;
16963;SDS011;8598;50.508;10.436;2023-02-10T09:04:21;41.40;;;23.73;;
16963;SDS011;8598;50.508;10.436;2023-02-10T09:06:48;47.70;;;24.33;;
16963;SDS011;8598;50.508;10.436;2023-02-10T09:09:16;43.17;;;23.43;;
16963;SDS011;8598;50.508;10.436;2023-02-10T09:11:46;42.13;;;24.13;;
16963;SDS011;8598;50.508;10.436;2023-02-10T09:14:13;43.70;;;23.33;;
16963;SDS011;8598;50.508;10.436;2023-02-10T09:16:40;48.10;;;27.03;;
16963;SDS011;8598;50.508;10.436;2023-02-10T09:19:08;55.00;;;27.80;;
16963;SDS011;8598;50.508;10.436;2023-02-10T09:21:34;52.23;;;26.23;;
16963;SDS011;8598;50.508;10.436;2023-02-10T09:24:01;40.00;;;22.57;;
16963;SDS011;8598;50.508;10.436;2023-02-10T09:26:28;47.00;;;24.43;;
16963;SDS011;8598;50.508;10.436;2023-02-10T09:28:54;43.73;;;25.60;;
16963;SDS011;8598;50.508;10.436;2023-02-10T09:31:22;46.17;;;22.40;;
16963;SDS011;8598;50.508;10.436;2023-02-10T09:33:48;44.33;;;23.47;;
16963;SDS011;8598;50.508;10.436;2023-02-10T09:36:17;53.53;;;26.03;;
16963;SDS011;8598;50.508;10.436;2023-02-10T09:38:45;49.27;;;24.40;;
16963;SDS011;8598;50.508;10.436;2023-02-10T09:41:14;44.73;;;24.00;;
16963;SDS011;8598;50.508;10.436;2023-02-10T09:44:02;44.20;;;23.17;;
16963;SDS011;8598;50.508;10.436;2023-02-10T09:46:37;47.43;;;24.80;;
16963;SDS011;8598;50.508;10.436;2023-02-10T09:49:19;43.70;;;23.27;;
16963;SDS011;8598;50.508;10.436;2023-02-10T09:52:04;47.67;;;24.53;;
16963;SDS011;8598;50.508;10.436;2023-02-10T09:54:38;44.93;;;23.40;;
16963;SDS011;8598;50.508;10.436;2023-02-10T09:57:08;44.37;;;23.30;;
16963;SDS011;8598;50.508;10.436;2023-02-10T09:59:38;38.57;;;22.67;;
16963;SDS011;8598;50.508;10.436;2023-02-10T10:02:10;46.63;;;25.80;;
16963;SDS011;8598;50.508;10.436;2023-02-10T10:04:40;39.63;;;23.53;;
16963;SDS011;8598;50.508;10.436;2023-02-10T10:07:13;44.30;;;21.97;;
16963;SDS011;8598;50.508;10.436;2023-02-10T10:09:50;45.63;;;24.40;;
16963;SDS011;8598;50.508;10.436;2023-02-10T10:12:24;40.63;;;23.70;;
16963;SDS011;8598;50.508;10.436;2023-02-10T10:14:51;43.27;;;24.23;;
16963;SDS011;8598;50.508;10.436;2023-02-10T10:20:13;51.50;;;25.23;;
16963;SDS011;8598;50.508;10.436;2023-02-10T10:22:55;48.37;;;24.00;;
16963;SDS011;8598;50.508;10.436;2023-02-10T10:25:49;42.93;;;23.10;;
16963;SDS011;8598;50.508;10.436;2023-02-10T10:28:23;45.60;;;23.47;;
16963;SDS011;8598;50.508;10.436;2023-02-10T10:30:57;49.00;;;23.97;;
16963;SDS011;8598;50.508;10.436;2023-02-10T10:33:28;40.47;;;22.83;;
16963;SDS011;8598;50.508;10.436;2023-02-10T10:36:00;49.00;;;24.73;;
16963;SDS011;8598;50.508;10.436;2023-02-10T10:38:30;44.67;;;24.43;;
16963;SDS011;8598;50.508;10.436;2023-02-10T10:41:00;45.73;;;22.33;;
16963;SDS011;8598;50.508;10.436;2023-02-10T10:43:30;44.40;;;23.17;;
16963;SDS011;8598;50.508;10.436;2023-02-10T10:45:59;48.13;;;26.00;;
16963;SDS011;8598;50.508;10.436;2023-02-10T10:48:29;47.43;;;24.43;;
16963;SDS011;8598;50.508;10.436;2023-02-10T10:50:58;44.57;;;22.67;;
16963;SDS011;8598;50.508;10.436;2023-02-10T10:53:31;47.67;;;25.37;;
16963;SDS011;8598;50.508;10.436;2023-02-10T10:56:03;49.97;;;26.93;;
16963;SDS011;8598;50.508;10.436;2023-02-10T10:58:35;49.53;;;27.53;;
16963;SDS011;8598;50.508;10.436;2023-02-10T11:01:03;55.77;;;30.70;;
16963;SDS011;8598;50.508;10.436;2023-02-10T11:03:30;50.13;;;29.07;;
16963;SDS011;8598;50.508;10.436;2023-02-10T11:05:58;47.63;;;27.73;;
16963;SDS011;8598;50.508;10.436;2023-02-10T11:08:30;46.73;;;25.37;;
16963;SDS011;8598;50.508;10.436;2023-02-10T11:11:01;46.50;;;26.23;;
16963;SDS011;8598;50.508;10.436;2023-02-10T11:13:31;55.33;;;27.97;;
16963;SDS011;8598;50.508;10.436;2023-02-10T11:16:01;50.10;;;27.03;;
16963;SDS011;8598;50.508;10.436;2023-02-10T11:18:29;85.90;;;36.50;;
16963;SDS011;8598;50.508;10.436;2023-02-10T11:20:57;52.27;;;27.23;;
16963;SDS011;8598;50.508;10.436;2023-02-10T11:23:25;49.90;;;25.60;;
16963;SDS011;8598;50.508;10.436;2023-02-10T11:25:59;72.20;;;35.27;;
16963;SDS011;8598;50.508;10.436;2023-02-10T11:28:27;83.93;;;36.97;;
16963;SDS011;8598;50.508;10.436;2023-02-10T11:30:57;61.93;;;29.70;;
16963;SDS011;8598;50.508;10.436;2023-02-10T11:33:26;64.97;;;36.13;;
16963;SDS011;8598;50.508;10.436;2023-02-10T11:35:55;64.73;;;30.33;;
16963;SDS011;8598;50.508;10.436;2023-02-10T11:38:26;56.27;;;31.33;;
16963;SDS011;8598;50.508;10.436;2023-02-10T11:40:54;60.73;;;31.03;;
16963;SDS011;8598;50.508;10.436;2023-02-10T11:43:27;50.80;;;26.10;;
16963;SDS011;8598;50.508;10.436;2023-02-10T11:45:57;47.30;;;25.60;;
16963;SDS011;8598;50.508;10.436;2023-02-10T11:48:25;50.00;;;26.80;;
16963;SDS011;8598;50.508;10.436;2023-02-10T11:51:00;45.10;;;25.57;;
16963;SDS011;8598;50.508;10.436;2023-02-10T11:53:31;54.13;;;28.00;;
16963;SDS011;8598;50.508;10.436;2023-02-10T11:56:01;53.03;;;26.70;;
16963;SDS011;8598;50.508;10.436;2023-02-10T11:58:36;54.03;;;27.70;;
16963;SDS011;8598;50.508;10.436;2023-02-10T12:01:46;50.77;;;26.70;;
16963;SDS011;8598;50.508;10.436;2023-02-10T12:07:23;49.77;;;26.70;;
16963;SDS011;8598;50.508;10.436;2023-02-10T12:09:57;51.90;;;29.43;;
16963;SDS011;8598;50.508;10.436;2023-02-10T12:12:32;49.97;;;27.27;;
16963;SDS011;8598;50.508;10.436;2023-02-10T12:15:13;45.67;;;27.57;;
16963;SDS011;8598;50.508;10.436;2023-02-10T12:17:48;48.47;;;27.77;;
16963;SDS011;8598;50.508;10.436;2023-02-10T12:20:26;50.10;;;26.27;;
16963;SDS011;8598;50.508;10.436;2023-02-10T12:23:10;43.30;;;23.73;;
16963;SDS011;8598;50.508;10.436;2023-02-10T12:26:00;48.03;;;27.23;;
16963;SDS011;8598;50.508;10.436;2023-02-10T12:28:35;55.30;;;27.53;;
16963;SDS011;8598;50.508;10.436;2023-02-10T12:31:13;46.63;;;25.20;;
16963;SDS011;8598;50.508;10.436;2023-02-10T12:33:50;56.17;;;28.73;;
16963;SDS011;8598;50.508;10.436;2023-02-10T12:36:31;52.93;;;28.43;;
16963;SDS011;8598;50.508;10.436;2023-02-10T12:39:05;51.47;;;28.17;;
16963;SDS011;8598;50.508;10.436;2023-02-10T12:41:42;51.03;;;27.47;;
16963;SDS011;8598;50.508;10.436;2023-02-10T12:44:22;56.50;;;29.00;;
16963;SDS011;8598;50.508;10.436;2023-02-10T12:47:15;54.83;;;28.50;;
16963;SDS011;8598;50.508;10.436;2023-02-10T12:49:57;54.17;;;29.50;;
16963;SDS011;8598;50.508;10.436;2023-02-10T12:52:51;53.83;;;29.27;;
16963;SDS011;8598;50.508;10.436;2023-02-10T12:55:22;53.20;;;28.30;;
16963;SDS011;8598;50.508;10.436;2023-02-10T12:57:52;58.50;;;28.37;;
16963;SDS011;8598;50.508;10.436;2023-02-10T13:00:23;49.03;;;26.67;;
16963;SDS011;8598;50.508;10.436;2023-02-10T13:02:56;54.13;;;26.93;;
16963;SDS011;8598;50.508;10.436;2023-02-10T13:05:28;48.63;;;26.60;;
16963;SDS011;8598;50.508;10.436;2023-02-10T13:07:59;51.47;;;26.27;;
16963;SDS011;8598;50.508;10.436;2023-02-10T13:10:29;48.93;;;26.13;;
16963;SDS011;8598;50.508;10.436;2023-02-10T13:13:01;46.50;;;25.17;;
16963;SDS011;8598;50.508;10.436;2023-02-10T13:15:32;52.53;;;26.70;;
16963;SDS011;8598;50.508;10.436;2023-02-10T13:18:07;47.10;;;25.03;;
16963;SDS011;8598;50.508;10.436;2023-02-10T13:20:44;53.87;;;27.60;;
16963;SDS011;8598;50.508;10.436;2023-02-10T13:23:21;52.93;;;26.60;;
16963;SDS011;8598;50.508;10.436;2023-02-10T13:25:59;50.17;;;27.13;;
16963;SDS011;8598;50.508;10.436;2023-02-10T13:28:41;49.97;;;25.00;;
16963;SDS011;8598;50.508;10.436;2023-02-10T13:31:18;50.23;;;25.20;;
16963;SDS011;8598;50.508;10.436;2023-02-10T13:34:00;47.50;;;25.97;;
16963;SDS011;8598;50.508;10.436;2023-02-10T13:36:32;45.50;;;25.93;;
16963;SDS011;8598;50.508;10.436;2023-02-10T13:39:02;46.97;;;26.37;;
16963;SDS011;8598;50.508;10.436;2023-02-10T13:41:33;51.87;;;28.87;;
16963;SDS011;8598;50.508;10.436;2023-02-10T13:44:14;52.37;;;27.93;;
16963;SDS011;8598;50.508;10.436;2023-02-10T13:46:50;55.50;;;27.53;;
16963;SDS011;8598;50.508;10.436;2023-02-10T13:49:22;61.40;;;27.40;;
16963;SDS011;8598;50.508;10.436;2023-02-10T13:51:50;52.30;;;28.27;;
16963;SDS011;8598;50.508;10.436;2023-02-10T13:54:25;63.70;;;28.60;;
16963;SDS011;8598;50.508;10.436;2023-02-10T13:56:54;59.87;;;28.93;;
16963;SDS011;8598;50.508;10.436;2023-02-10T13:59:27;60.77;;;31.53;;
16963;SDS011;8598;50.508;10.436;2023-02-10T14:02:02;56.40;;;30.80;;
16963;SDS011;8598;50.508;10.436;2023-02-10T14:04:48;64.30;;;30.30;;
16963;SDS011;8598;50.508;10.436;2023-02-10T14:07:28;60.70;;;31.23;;
16963;SDS011;8598;50.508;10.436;2023-02-10T14:10:04;64.27;;;33.63;;
16963;SDS011;8598;50.508;10.436;2023-02-10T14:12:33;70.03;;;33.57;;
16963;SDS011;8598;50.508;10.436;2023-02-10T14:15:20;67.97;;;33.03;;
16963;SDS011;8598;50.508;10.436;2023-02-10T14:17:55;59.10;;;29.73;;
16963;SDS011;8598;50.508;10.436;2023-02-10T14:20:27;64.53;;;32.00;;
16963;SDS011;8598;50.508;10.436;2023-02-10T14:22:58;62.77;;;29.93;;
16963;SDS011;8598;50.508;10.436;2023-02-10T14:25:31;59.90;;;31.23;;
16963;SDS011;8598;50.508;10.436;2023-02-10T14:28:00;66.33;;;32.33;;
16963;SDS011;8598;50.508;10.436;2023-02-10T14:30:31;64.97;;;32.97;;
16963;SDS011;8598;50.508;10.436;2023-02-10T14:33:05;62.63;;;33.53;;
16963;SDS011;8598;50.508;10.436;2023-02-10T14:35:33;65.17;;;30.57;;
16963;SDS011;8598;50.508;10.436;2023-02-10T14:38:03;57.47;;;31.13;;
16963;SDS011;8598;50.508;10.436;2023-02-10T14:40:30;61.90;;;30.00;;
16963;SDS011;8598;50.508;10.436;2023-02-10T14:42:58;65.83;;;33.77;;
16963;SDS011;8598;50.508;10.436;2023-02-10T14:45:27;64.77;;;33.07;;
16963;SDS011;8598;50.508;10.436;2023-02-10T14:47:55;63.90;;;31.50;;
16963;SDS011;8598;50.508;10.436;2023-02-10T14:50:26;62.93;;;31.80;;
16963;SDS011;8598;50.508;10.436;2023-02-10T14:52:56;66.60;;;33.37;;
16963;SDS011;8598;50.508;10.436;2023-02-10T14:55:24;67.87;;;32.67;;
16963;SDS011;8598;50.508;10.436;2023-02-10T14:57:55;65.90;;;31.40;;